createdAt,value
2019-02-22T00:01:35.376Z,6.30
2019-02-22T00:04:04.833Z,6.30
2019-02-22T00:06:34.281Z,6.30
2019-02-22T00:09:05.486Z,6.30
2019-02-22T00:11:34.969Z,6.40
2019-02-22T00:14:04.726Z,6.50
2019-02-22T00:16:34.237Z,6.30
2019-02-22T00:19:03.702Z,6.30
2019-02-22T00:21:33.210Z,6.30
2019-02-22T00:24:03.004Z,6.30
2019-02-22T00:26:32.381Z,6.30
2019-02-22T00:29:01.776Z,6.30
2019-02-22T00:31:31.153Z,6.30
2019-02-22T00:34:00.595Z,6.30
2019-02-22T00:36:30.028Z,6.30
2019-02-22T00:38:59.448Z,6.30
2019-02-22T00:41:28.756Z,6.30
2019-02-22T00:43:58.238Z,6.30
2019-02-22T00:46:27.923Z,6.20
2019-02-22T00:48:57.291Z,6.20
2019-02-22T00:51:29.496Z,6.20
2019-02-22T00:53:59.424Z,6.10
2019-02-22T00:56:28.763Z,6.10
2019-02-22T00:58:58.169Z,5.60
2019-02-22T01:01:27.534Z,4.90
2019-02-22T01:03:56.903Z,4.50
2019-02-22T01:06:26.239Z,4.00
2019-02-22T01:08:55.591Z,3.60
2019-02-22T01:11:26.370Z,3.30
2019-02-22T01:13:55.720Z,3.10
2019-02-22T01:16:25.071Z,3.00
2019-02-22T01:18:54.435Z,2.90
2019-02-22T01:21:23.803Z,2.70
2019-02-22T01:23:53.180Z,2.50
2019-02-22T01:26:22.587Z,2.30
2019-02-22T01:28:51.977Z,2.20
2019-02-22T01:31:21.324Z,2.10
2019-02-22T01:33:50.741Z,1.90
2019-02-22T01:36:20.113Z,1.80
2019-02-22T01:38:49.496Z,1.70
2019-02-22T01:41:18.901Z,1.80
2019-02-22T01:43:48.241Z,1.70
2019-02-22T01:46:17.597Z,1.80
2019-02-22T01:48:47.002Z,1.70
2019-02-22T01:51:16.368Z,1.60
2019-02-22T01:53:45.718Z,1.60
2019-02-22T01:56:15.413Z,1.50
2019-02-22T01:58:48.789Z,1.50
2019-02-22T02:01:15.812Z,1.50
2019-02-22T02:03:45.202Z,1.60
2019-02-22T02:06:14.515Z,1.60
2019-02-22T02:08:43.873Z,1.60
2019-02-22T02:11:13.278Z,1.50
2019-02-22T02:13:42.629Z,1.40
2019-02-22T02:16:11.980Z,1.30
2019-02-22T02:18:41.501Z,1.00
2019-02-22T02:21:10.822Z,0.90
2019-02-22T02:23:42.111Z,0.80
2019-02-22T02:26:11.496Z,0.70
2019-02-22T02:28:40.901Z,0.60
2019-02-22T02:31:10.274Z,0.50
2019-02-22T02:33:39.965Z,0.40
2019-02-22T02:36:09.347Z,0.40
2019-02-22T02:38:39.198Z,0.50
2019-02-22T02:41:11.382Z,0.60
2019-02-22T02:43:39.590Z,0.60
2019-02-22T02:46:08.935Z,0.50
2019-02-22T02:48:38.373Z,0.50
2019-02-22T02:51:07.762Z,0.40
2019-02-22T02:53:37.128Z,0.30
2019-02-22T02:56:06.503Z,0.30
2019-02-22T02:58:36.321Z,0.30
2019-02-22T03:01:05.784Z,0.30
2019-02-22T03:03:35.195Z,0.20
2019-02-22T03:06:16.876Z,0.10
2019-02-22T03:08:46.269Z,0.00
2019-02-22T03:11:20.732Z,0.00
2019-02-22T03:13:47.089Z,0.00
2019-02-22T03:16:16.521Z,0.00
2019-02-22T03:18:45.877Z,-0.10
2019-02-22T03:21:15.251Z,-0.20
2019-02-22T03:23:44.921Z,-0.30
2019-02-22T03:26:14.291Z,-0.30
2019-02-22T03:28:44.051Z,-0.40
2019-02-22T03:31:13.442Z,-0.50
2019-02-22T03:33:42.887Z,-0.50
2019-02-22T03:36:12.288Z,-0.50
2019-02-22T03:38:41.675Z,-0.50
2019-02-22T03:41:11.065Z,-0.50
2019-02-22T03:43:40.475Z,-0.40
2019-02-22T03:46:09.907Z,-0.50
2019-02-22T03:48:39.280Z,-0.40
2019-02-22T03:51:08.670Z,-0.50
2019-02-22T03:53:58.691Z,-0.50
2019-02-22T03:56:28.085Z,-0.50
2019-02-22T03:58:57.743Z,-0.60
2019-02-22T04:01:27.122Z,-0.60
2019-02-22T04:03:56.858Z,-0.60
2019-02-22T04:06:26.229Z,-0.70
2019-02-22T04:08:55.573Z,-0.70
2019-02-22T04:11:24.960Z,-0.80
2019-02-22T04:13:54.336Z,-0.80
2019-02-22T04:16:23.708Z,-0.90
2019-02-22T04:18:53.143Z,-0.90
2019-02-22T04:21:22.514Z,-0.90
2019-02-22T04:23:52.192Z,-1.00
2019-02-22T04:26:21.575Z,-1.00
2019-02-22T04:28:53.905Z,-1.00
2019-02-22T04:31:24.002Z,-1.00
2019-02-22T04:33:53.372Z,-1.00
2019-02-22T04:36:22.743Z,-1.00
2019-02-22T04:38:52.159Z,-1.00
2019-02-22T04:41:21.525Z,-1.10
2019-02-22T04:43:51.474Z,-1.20
2019-02-22T04:46:20.845Z,-1.20
2019-02-22T04:48:50.232Z,-1.20
2019-02-22T04:51:19.581Z,-1.30
2019-02-22T04:53:48.879Z,-1.20
2019-02-22T04:56:18.251Z,-1.20
2019-02-22T04:58:47.644Z,-1.20
2019-02-22T05:01:17.052Z,-1.20
2019-02-22T05:03:46.685Z,-1.10
2019-02-22T05:06:16.122Z,-1.20
2019-02-22T05:08:45.473Z,-1.10
2019-02-22T05:11:14.836Z,-1.10
2019-02-22T05:13:44.235Z,-1.10
2019-02-22T05:16:13.619Z,-1.10
2019-02-22T05:18:43.037Z,-1.10
2019-02-22T05:21:12.419Z,-1.30
2019-02-22T05:23:41.793Z,-1.20
2019-02-22T05:26:11.227Z,-1.10
2019-02-22T05:28:40.572Z,-1.10
2019-02-22T05:31:09.963Z,-1.10
2019-02-22T05:33:39.350Z,-1.20
2019-02-22T05:36:08.731Z,-1.30
2019-02-22T05:38:38.103Z,-1.20
2019-02-22T05:41:07.509Z,-1.30
2019-02-22T05:43:37.132Z,-1.20
2019-02-22T05:46:07.492Z,-1.20
2019-02-22T05:48:38.853Z,-1.30
2019-02-22T05:51:07.942Z,-1.20
2019-02-22T05:53:37.320Z,-1.20
2019-02-22T05:56:06.727Z,-1.20
2019-02-22T05:58:36.132Z,-1.30
2019-02-22T06:01:06.895Z,-1.20
2019-02-22T06:03:36.403Z,-1.30
2019-02-22T06:06:06.610Z,-1.30
2019-02-22T06:08:36.284Z,-1.30
2019-02-22T06:11:05.662Z,-1.30
2019-02-22T06:13:35.029Z,-1.40
2019-02-22T06:16:04.739Z,-1.40
2019-02-22T06:18:34.142Z,-1.40
2019-02-22T06:21:03.776Z,-1.40
2019-02-22T06:23:33.151Z,-1.40
2019-02-22T06:26:02.531Z,-1.50
2019-02-22T06:28:31.893Z,-1.50
2019-02-22T06:31:01.236Z,-1.70
2019-02-22T06:33:30.655Z,-1.70
2019-02-22T06:36:00.032Z,-1.70
2019-02-22T06:38:29.375Z,-1.80
2019-02-22T06:40:58.797Z,-1.80
2019-02-22T06:43:28.192Z,-1.70
2019-02-22T06:45:57.593Z,-1.70
2019-02-22T06:48:26.992Z,-1.80
2019-02-22T06:50:56.351Z,-1.80
2019-02-22T06:53:25.724Z,-1.80
2019-02-22T06:55:55.068Z,-1.80
2019-02-22T06:58:24.479Z,-1.80
2019-02-22T07:00:53.865Z,-1.80
2019-02-22T07:03:23.237Z,-1.80
2019-02-22T07:05:52.617Z,-1.80
2019-02-22T07:08:21.998Z,-1.80
2019-02-22T07:11:02.849Z,-1.80
2019-02-22T07:13:32.224Z,-1.80
2019-02-22T07:16:01.606Z,-1.90
2019-02-22T07:18:31.456Z,-1.80
2019-02-22T07:21:00.810Z,-1.70
2019-02-22T07:23:30.174Z,-1.70
2019-02-22T07:25:59.597Z,-1.70
2019-02-22T07:28:29.005Z,-1.80
2019-02-22T07:30:59.043Z,-1.80
2019-02-22T07:33:28.493Z,-1.70
2019-02-22T07:35:58.134Z,-1.50
2019-02-22T07:38:28.140Z,-1.40
2019-02-22T07:40:57.575Z,-1.10
2019-02-22T07:43:26.957Z,-0.20
2019-02-22T07:45:56.336Z,1.40
2019-02-22T07:48:25.758Z,2.40
2019-02-22T07:50:58.175Z,3.50
2019-02-22T07:53:26.116Z,4.50
2019-02-22T07:55:55.513Z,5.10
2019-02-22T07:58:24.935Z,5.90
2019-02-22T08:00:54.540Z,6.50
2019-02-22T08:03:23.938Z,6.80
2019-02-22T08:05:53.541Z,7.30
2019-02-22T08:08:23.000Z,8.40
2019-02-22T08:10:52.529Z,9.10
2019-02-22T08:13:21.875Z,8.10
2019-02-22T08:15:51.268Z,6.90
2019-02-22T08:18:20.693Z,5.80
2019-02-22T08:20:50.062Z,3.90
2019-02-22T08:23:19.467Z,2.90
2019-02-22T08:25:48.919Z,1.90
2019-02-22T08:28:18.567Z,1.40
2019-02-22T08:30:47.954Z,0.90
2019-02-22T08:33:17.421Z,0.80
2019-02-22T08:35:47.044Z,0.90
2019-02-22T08:38:16.623Z,0.80
2019-02-22T08:40:46.014Z,0.50
2019-02-22T08:43:15.460Z,0.50
2019-02-22T08:45:45.139Z,0.50
2019-02-22T08:48:15.881Z,0.40
2019-02-22T08:50:45.319Z,0.40
2019-02-22T08:53:14.700Z,0.40
2019-02-22T08:55:45.872Z,0.40
2019-02-22T08:58:15.263Z,0.50
2019-02-22T09:00:44.688Z,0.70
2019-02-22T09:03:14.149Z,0.60
2019-02-22T09:05:43.900Z,0.70
2019-02-22T09:08:13.839Z,0.70
2019-02-22T09:10:45.302Z,0.70
2019-02-22T09:13:14.742Z,0.70
2019-02-22T09:15:44.211Z,0.70
2019-02-22T09:18:15.097Z,0.80
2019-02-22T09:20:44.492Z,1.00
2019-02-22T09:23:14.155Z,1.20
2019-02-22T09:25:45.633Z,1.00
2019-02-22T09:28:15.084Z,0.50
2019-02-22T09:30:44.777Z,0.40
2019-02-22T09:33:14.229Z,0.40
2019-02-22T09:35:43.696Z,0.40
2019-02-22T09:38:13.118Z,0.40
2019-02-22T09:40:42.512Z,0.60
2019-02-22T09:43:12.424Z,0.50
2019-02-22T09:45:41.856Z,0.30
2019-02-22T09:48:11.259Z,0.20
2019-02-22T09:50:41.217Z,0.10
2019-02-22T09:53:10.588Z,0.20
2019-02-22T09:55:40.004Z,0.30
2019-02-22T09:58:09.393Z,0.60
2019-02-22T10:00:38.773Z,0.70
2019-02-22T10:03:08.144Z,0.80
2019-02-22T10:05:37.501Z,0.70
2019-02-22T10:08:06.904Z,0.70
2019-02-22T10:10:36.256Z,0.80
2019-02-22T10:13:06.176Z,0.80
2019-02-22T10:15:35.469Z,0.80
2019-02-22T10:18:04.809Z,0.80
2019-02-22T10:20:34.175Z,0.70
2019-02-22T10:23:03.585Z,0.60
2019-02-22T10:25:32.942Z,0.70
2019-02-22T10:28:02.414Z,0.80
2019-02-22T10:30:31.847Z,0.80
2019-02-22T10:33:01.186Z,0.80
2019-02-22T10:35:30.608Z,0.90
2019-02-22T10:38:00.014Z,1.10
2019-02-22T10:40:29.380Z,1.10
2019-02-22T10:42:58.724Z,1.00
2019-02-22T10:45:28.404Z,1.00
2019-02-22T10:47:57.795Z,0.90
2019-02-22T10:50:27.176Z,1.10
2019-02-22T10:53:02.098Z,1.30
2019-02-22T10:55:27.621Z,1.30
2019-02-22T10:57:57.087Z,1.40
2019-02-22T11:00:27.105Z,1.20
2019-02-22T11:02:56.421Z,1.00
2019-02-22T11:05:25.799Z,1.00
2019-02-22T11:07:55.176Z,1.10
2019-02-22T11:10:24.541Z,0.90
2019-02-22T11:12:56.164Z,0.80
2019-02-22T11:15:25.655Z,0.70
2019-02-22T11:17:55.021Z,0.90
2019-02-22T11:20:24.447Z,1.20
2019-02-22T11:22:53.849Z,1.40
2019-02-22T11:25:23.235Z,1.50
2019-02-22T11:27:52.975Z,1.40
2019-02-22T11:30:22.842Z,1.10
2019-02-22T11:32:52.136Z,1.00
2019-02-22T11:35:23.418Z,1.20
2019-02-22T11:37:52.689Z,1.30
2019-02-22T11:40:22.088Z,1.30
2019-02-22T11:42:51.476Z,1.40
2019-02-22T11:45:21.449Z,1.40
2019-02-22T11:47:51.369Z,1.40
2019-02-22T11:50:23.821Z,1.50
2019-02-22T11:52:53.538Z,1.60
2019-02-22T11:55:23.253Z,1.60
2019-02-22T11:57:52.671Z,1.50
2019-02-22T12:00:24.117Z,1.40
2019-02-22T12:02:53.508Z,1.60
2019-02-22T12:05:22.832Z,1.50
2019-02-22T12:07:52.238Z,1.50
2019-02-22T12:10:21.605Z,1.20
2019-02-22T12:12:51.039Z,1.20
2019-02-22T12:15:20.929Z,1.60
2019-02-22T12:17:50.295Z,1.80
2019-02-22T12:20:19.712Z,1.70
2019-02-22T12:22:49.412Z,1.70
2019-02-22T12:25:20.875Z,1.60
2019-02-22T12:27:50.650Z,1.30
2019-02-22T12:30:21.114Z,1.10
2019-02-22T12:32:50.569Z,1.00
2019-02-22T12:35:20.344Z,1.00
2019-02-22T12:37:49.716Z,1.00
2019-02-22T12:40:19.138Z,1.20
2019-02-22T12:42:48.505Z,1.20
2019-02-22T12:45:17.925Z,1.10
2019-02-22T12:47:47.561Z,1.20
2019-02-22T12:50:16.982Z,1.40
2019-02-22T12:52:46.380Z,1.50
2019-02-22T12:55:16.549Z,1.50
2019-02-22T12:57:45.997Z,1.60
2019-02-22T13:00:15.740Z,1.50
2019-02-22T13:02:45.129Z,1.50
2019-02-22T13:05:15.468Z,1.40
2019-02-22T13:07:44.819Z,1.60
2019-02-22T13:10:14.605Z,1.60
2019-02-22T13:12:43.984Z,1.60
2019-02-22T13:15:14.637Z,1.60
2019-02-22T13:17:44.548Z,1.60
2019-02-22T13:20:14.205Z,1.70
2019-02-22T13:22:43.664Z,1.70
2019-02-22T13:25:13.080Z,2.00
2019-02-22T13:27:42.465Z,2.70
2019-02-22T13:30:12.479Z,3.50
2019-02-22T13:32:41.897Z,3.80
2019-02-22T13:35:13.269Z,4.30
2019-02-22T13:37:43.524Z,4.80
2019-02-22T13:40:15.462Z,5.10
2019-02-22T13:42:47.163Z,4.80
2019-02-22T13:45:26.664Z,4.30
2019-02-22T13:47:49.553Z,4.40
2019-02-22T13:50:19.270Z,4.20
2019-02-22T13:52:48.680Z,4.10
2019-02-22T13:55:18.431Z,3.90
2019-02-22T13:57:48.066Z,3.90
2019-02-22T14:00:18.544Z,3.80
2019-02-22T14:02:49.103Z,4.30
2019-02-22T14:05:18.521Z,4.30
2019-02-22T14:07:54.862Z,4.50
2019-02-22T14:10:24.943Z,4.70
2019-02-22T14:12:54.398Z,4.70
2019-02-22T14:15:23.942Z,4.80
2019-02-22T14:17:54.091Z,4.80
2019-02-22T14:20:23.777Z,4.80
2019-02-22T14:22:53.960Z,4.50
2019-02-22T14:25:23.381Z,4.60
2019-02-22T14:27:52.793Z,4.50
2019-02-22T14:30:22.545Z,4.20
2019-02-22T14:32:53.366Z,4.20
2019-02-22T14:35:22.803Z,4.00
2019-02-22T14:37:52.298Z,4.10
2019-02-22T14:40:21.752Z,4.30
2019-02-22T14:42:51.675Z,4.00
2019-02-22T14:45:21.345Z,3.80
2019-02-22T14:47:50.717Z,3.70
2019-02-22T14:50:24.826Z,3.70
2019-02-22T14:52:54.173Z,3.50
2019-02-22T14:55:23.630Z,3.40
2019-02-22T14:57:53.770Z,3.30
2019-02-22T15:00:23.162Z,3.50
2019-02-22T15:02:55.834Z,3.30
2019-02-22T15:05:25.557Z,3.20
2019-02-22T15:07:55.247Z,2.80
2019-02-22T15:10:24.901Z,2.70
2019-02-22T15:12:54.340Z,2.80
2019-02-22T15:15:30.490Z,2.70
2019-02-22T15:18:02.035Z,2.50
2019-02-22T15:20:31.631Z,2.20
2019-02-22T15:23:02.574Z,1.90
2019-02-22T15:25:32.085Z,1.60
2019-02-22T15:28:01.492Z,1.40
2019-02-22T15:30:30.853Z,1.10
2019-02-22T15:33:01.060Z,0.80
2019-02-22T15:35:30.421Z,0.70
2019-02-22T15:37:59.773Z,0.60
2019-02-22T15:40:29.231Z,0.40
2019-02-22T15:42:58.599Z,0.40
2019-02-22T15:45:28.441Z,0.30
2019-02-22T15:47:58.184Z,0.20
2019-02-22T15:50:28.230Z,0.00
2019-02-22T15:52:57.736Z,-0.10
2019-02-22T15:55:27.251Z,-0.10
2019-02-22T15:57:56.702Z,-0.20
2019-02-22T16:00:27.357Z,-0.20
2019-02-22T16:02:56.759Z,-0.30
2019-02-22T16:05:31.667Z,-0.40
2019-02-22T16:08:01.174Z,-0.50
2019-02-22T16:10:32.432Z,-0.50
2019-02-22T16:13:02.237Z,-0.60
2019-02-22T16:15:31.663Z,-0.70
2019-02-22T16:18:01.446Z,-0.60
2019-02-22T16:20:30.909Z,-0.70
2019-02-22T16:23:00.332Z,-0.70
2019-02-22T16:25:29.804Z,-0.80
2019-02-22T16:27:59.800Z,-0.90
2019-02-22T16:30:32.119Z,-1.00
2019-02-22T16:33:02.598Z,-1.10
2019-02-22T16:35:32.050Z,-1.20
2019-02-22T16:38:02.831Z,-1.30
2019-02-22T16:40:32.481Z,-1.30
2019-02-22T16:43:02.331Z,-1.40
2019-02-22T16:45:31.778Z,-1.40
2019-02-22T16:48:01.224Z,-1.50
2019-02-22T16:50:30.691Z,-1.60
2019-02-22T16:53:00.085Z,-1.60
2019-02-22T16:55:29.693Z,-1.60
2019-02-22T16:58:00.286Z,-1.60
2019-02-22T17:00:29.824Z,-1.70
2019-02-22T17:02:59.258Z,-1.70
2019-02-22T17:05:29.219Z,-1.80
2019-02-22T17:07:58.669Z,-1.70
2019-02-22T17:10:28.473Z,-1.70
2019-02-22T17:12:59.117Z,-1.70
2019-02-22T17:15:28.564Z,-1.80
2019-02-22T17:18:01.440Z,-1.80
2019-02-22T17:20:31.530Z,-1.80
2019-02-22T17:23:02.392Z,-1.90
2019-02-22T17:25:31.904Z,-1.90
2019-02-22T17:28:01.360Z,-2.00
2019-02-22T17:30:30.825Z,-2.00
2019-02-22T17:33:00.541Z,-2.00
2019-02-22T17:35:30.873Z,-2.00
2019-02-22T17:38:00.303Z,-2.10
2019-02-22T17:40:32.130Z,-2.00
2019-02-22T17:43:01.640Z,-2.10
2019-02-22T17:45:31.396Z,-2.10
2019-02-22T17:48:01.362Z,-2.10
2019-02-22T17:50:31.151Z,-2.10
2019-02-22T17:53:00.703Z,-2.20
2019-02-22T17:55:30.452Z,-2.20
2019-02-22T17:58:00.024Z,-2.20
2019-02-22T18:00:29.594Z,-2.20
2019-02-22T18:02:59.186Z,-2.20
2019-02-22T18:05:28.671Z,-2.30
2019-02-22T18:07:58.377Z,-2.40
2019-02-22T18:10:27.906Z,-2.40
2019-02-22T18:12:57.742Z,-2.40
2019-02-22T18:15:27.198Z,-2.40
2019-02-22T18:17:56.676Z,-2.50
2019-02-22T18:20:28.056Z,-2.50
2019-02-22T18:22:57.617Z,-2.50
2019-02-22T18:25:27.195Z,-2.50
2019-02-22T18:27:56.795Z,-2.60
2019-02-22T18:30:26.392Z,-2.50
2019-02-22T18:32:55.803Z,-2.60
2019-02-22T18:35:29.220Z,-2.50
2019-02-22T18:37:58.842Z,-2.50
2019-02-22T18:40:28.455Z,-2.50
2019-02-22T18:42:59.464Z,-2.50
2019-02-22T18:45:30.306Z,-2.50
2019-02-22T18:48:01.389Z,-2.60
2019-02-22T18:50:35.059Z,-2.70
2019-02-22T18:53:05.793Z,-2.70
2019-02-22T18:55:36.478Z,-2.70
2019-02-22T18:58:05.913Z,-2.70
2019-02-22T19:00:35.343Z,-2.80
2019-02-22T19:03:06.305Z,-2.80
2019-02-22T19:05:35.820Z,-2.90
2019-02-22T19:08:05.425Z,-2.80
2019-02-22T19:10:36.571Z,-2.80
2019-02-22T19:13:07.225Z,-2.90
2019-02-22T19:15:37.751Z,-2.90
2019-02-22T19:18:07.665Z,-2.90
2019-02-22T19:20:37.460Z,-2.90
2019-02-22T19:23:07.274Z,-2.90
2019-02-22T19:25:38.422Z,-2.90
2019-02-22T19:28:07.921Z,-2.90
2019-02-22T19:30:37.603Z,-2.90
2019-02-22T19:33:07.038Z,-3.00
2019-02-22T19:35:42.238Z,-3.00
2019-02-22T19:38:11.573Z,-3.00
2019-02-22T19:40:42.128Z,-3.10
2019-02-22T19:43:23.127Z,-3.10
2019-02-22T19:45:53.483Z,-3.10
2019-02-22T19:48:23.768Z,-3.10
2019-02-22T19:50:53.516Z,-3.10
2019-02-22T19:53:22.986Z,-3.10
2019-02-22T19:55:55.253Z,-3.00
2019-02-22T19:58:24.557Z,-3.00
2019-02-22T20:00:56.061Z,-3.10
2019-02-22T20:03:25.482Z,-3.10
2019-02-22T20:05:54.850Z,-3.10
2019-02-22T20:08:24.466Z,-3.10
2019-02-22T20:10:54.299Z,-3.20
2019-02-22T20:13:23.718Z,-3.10
2019-02-22T20:15:53.302Z,-3.10
2019-02-22T20:18:24.276Z,-3.10
2019-02-22T20:20:54.941Z,-3.20
2019-02-22T20:23:26.352Z,-3.20
2019-02-22T20:25:57.012Z,-3.20
2019-02-22T20:28:26.796Z,-3.20
2019-02-22T20:30:56.580Z,-3.30
2019-02-22T20:33:27.527Z,-3.30
2019-02-22T20:35:56.944Z,-3.30
2019-02-22T20:38:26.365Z,-3.30
2019-02-22T20:40:55.882Z,-3.30
2019-02-22T20:43:25.724Z,-3.30
2019-02-22T20:45:57.025Z,-3.30
2019-02-22T20:48:26.556Z,-3.40
2019-02-22T20:50:55.945Z,-3.30
2019-02-22T20:53:25.688Z,-3.30
2019-02-22T20:55:55.238Z,-3.30
2019-02-22T20:58:25.060Z,-3.30
2019-02-22T21:00:55.035Z,-3.40
2019-02-22T21:03:25.286Z,-3.40
2019-02-22T21:05:54.774Z,-3.40
2019-02-22T21:08:25.784Z,-3.40
2019-02-22T21:10:56.067Z,-3.50
2019-02-22T21:13:28.167Z,-3.50
2019-02-22T21:15:57.222Z,-3.40
2019-02-22T21:18:30.924Z,-3.40
2019-02-22T21:21:01.728Z,-3.50
2019-02-22T21:23:32.655Z,-3.50
2019-02-22T21:26:02.080Z,-3.50
2019-02-22T21:28:31.686Z,-3.50
2019-02-22T21:31:01.147Z,-3.50
2019-02-22T21:33:30.568Z,-3.50
2019-02-22T21:36:00.886Z,-3.60
2019-02-22T21:38:30.397Z,-3.60
2019-02-22T21:40:59.829Z,-3.60
2019-02-22T21:43:29.309Z,-3.50
2019-02-22T21:45:59.103Z,-3.60
2019-02-22T21:48:29.127Z,-3.50
2019-02-22T21:51:00.249Z,-3.60
2019-02-22T21:53:29.651Z,-3.50
2019-02-22T21:56:05.119Z,-3.50
2019-02-22T21:58:34.654Z,-3.50
2019-02-22T22:01:06.165Z,-3.40
2019-02-22T22:03:36.791Z,-3.50
2019-02-22T22:06:06.793Z,-3.50
2019-02-22T22:08:44.114Z,-3.50
2019-02-22T22:11:14.945Z,-3.60
2019-02-22T22:13:45.937Z,-3.60
2019-02-22T22:16:21.759Z,-3.60
2019-02-22T22:18:51.239Z,-3.60
2019-02-22T22:21:21.781Z,-3.60
2019-02-22T22:23:51.939Z,-3.60
2019-02-22T22:26:24.580Z,-3.60
2019-02-22T22:28:55.184Z,-3.60
2019-02-22T22:31:26.198Z,-3.70
2019-02-22T22:33:56.941Z,-3.70
2019-02-22T22:36:29.492Z,-3.70
2019-02-22T22:39:00.722Z,-3.80
2019-02-22T22:41:30.487Z,-3.80
2019-02-22T22:44:04.404Z,-3.80
2019-02-22T22:46:37.185Z,-3.80
2019-02-22T22:49:06.848Z,-3.90
2019-02-22T22:51:36.300Z,-3.90
2019-02-22T22:54:06.771Z,-3.90
2019-02-22T22:56:36.688Z,-3.90
2019-02-22T22:59:06.404Z,-4.00
2019-02-22T23:01:36.458Z,-4.00
2019-02-22T23:04:05.906Z,-4.10
2019-02-22T23:06:35.457Z,-4.10
2019-02-22T23:09:07.959Z,-4.10
2019-02-22T23:11:37.354Z,-4.10
2019-02-22T23:14:06.796Z,-4.10
2019-02-22T23:16:36.185Z,-4.20
2019-02-22T23:19:05.602Z,-4.20
2019-02-22T23:21:35.531Z,-4.30
2019-02-22T23:24:04.897Z,-4.30
2019-02-22T23:26:34.354Z,-4.40
2019-02-22T23:29:03.767Z,-4.40
2019-02-22T23:31:33.163Z,-4.50
2019-02-22T23:34:02.603Z,-4.50
2019-02-22T23:36:32.001Z,-4.50
2019-02-22T23:39:01.375Z,-4.60
2019-02-22T23:41:30.755Z,-4.80
2019-02-22T23:44:00.144Z,-5.00
2019-02-22T23:46:29.556Z,-5.10
2019-02-22T23:48:58.931Z,-5.20
2019-02-22T23:51:28.300Z,-5.10
2019-02-22T23:53:57.690Z,-5.30
2019-02-22T23:56:27.512Z,-5.30
2019-02-22T23:58:56.938Z,-5.40
